Time;durP1;ratioP1;P1;durP2;ratioP2;P2;SDS_P1;SDS_P2;PMS_P1;PMS_P2;Temp;Humidity;BMP_temperature;BMP_pressure;BME280_temperature;BME280_humidity;BME280_pressure;Samples;Min_cycle;Max_cycle;Signal;HPM_P1;HPM_P2
2023/05/21 00:02:17;;;;;;;5.25;3.80;;;14.60;99.90;;;;;;5067730;28;20079;-68
2023/05/21 00:04:43;;;;;;;4.93;3.70;;;14.60;99.90;;;;;;5062989;28;20051;-69
2023/05/21 00:07:10;;;;;;;6.60;4.00;;;14.60;99.90;;;;;;5055889;28;20083;-68
2023/05/21 00:09:37;;;;;;;9.23;4.10;;;14.60;99.90;;;;;;5073921;28;20111;-69
2023/05/21 00:12:07;;;;;;;6.00;3.40;;;14.60;99.90;;;;;;5039598;28;20076;-68
2023/05/21 00:14:33;;;;;;;4.70;3.53;;;14.50;99.90;;;;;;5055984;28;20128;-69
2023/05/21 00:16:59;;;;;;;5.90;3.40;;;14.50;99.90;;;;;;5073962;28;20064;-68
2023/05/21 00:19:25;;;;;;;6.15;4.03;;;14.50;99.90;;;;;;5055750;28;20437;-68
2023/05/21 00:21:51;;;;;;;6.78;4.18;;;14.50;99.90;;;;;;5073909;28;20037;-68
2023/05/21 00:24:17;;;;;;;5.07;3.47;;;14.50;99.90;;;;;;5073796;28;20496;-68
2023/05/21 00:26:43;;;;;;;6.50;3.92;;;14.50;99.90;;;;;;5073480;28;20468;-68
2023/05/21 00:29:08;;;;;;;8.30;4.18;;;14.50;99.90;;;;;;5073731;28;20037;-68
2023/05/21 00:31:34;;;;;;;7.57;4.32;;;14.50;99.90;;;;;;5055758;28;20117;-68
2023/05/21 00:33:59;;;;;;;6.68;4.07;;;14.50;99.90;;;;;;5055863;28;20404;-68
2023/05/21 00:36:25;;;;;;;6.70;4.13;;;14.50;99.90;;;;;;5073554;28;20518;-68
2023/05/21 00:38:51;;;;;;;6.80;4.22;;;14.50;99.90;;;;;;5073406;28;20418;-68
2023/05/21 00:41:17;;;;;;;7.63;4.22;;;14.40;99.90;;;;;;5073416;28;20032;-68
2023/05/21 00:43:43;;;;;;;6.18;3.85;;;14.40;99.90;;;;;;5073331;28;20488;-68
2023/05/21 00:46:18;;;;;;;5.18;4.05;;;14.40;99.90;;;;;;5073386;28;20041;-68
2023/05/21 00:48:45;;;;;;;6.95;4.07;;;14.40;99.90;;;;;;5075145;28;20040;-68
2023/05/21 00:51:12;;;;;;;8.23;4.10;;;14.40;99.90;;;;;;5075028;28;20093;-68
2023/05/21 00:53:38;;;;;;;6.63;4.28;;;14.40;99.90;;;;;;5073122;28;20124;-68
2023/05/21 00:56:04;;;;;;;6.60;4.45;;;14.40;99.90;;;;;;5073235;28;20120;-69
2023/05/21 00:58:32;;;;;;;7.55;4.60;;;14.40;99.90;;;;;;5073173;28;20115;-68
2023/05/21 01:01:02;;;;;;;6.90;4.70;;;14.40;99.90;;;;;;5073230;28;20051;-68
2023/05/21 01:03:36;;;;;;;8.82;4.53;;;14.30;99.90;;;;;;5072855;28;20048;-68
2023/05/21 01:06:04;;;;;;;13.90;4.60;;;14.30;99.90;;;;;;5072656;28;20409;-68
2023/05/21 01:08:29;;;;;;;6.22;3.85;;;14.30;99.90;;;;;;5072742;28;20431;-68
2023/05/21 01:10:56;;;;;;;5.93;4.47;;;14.30;99.90;;;;;;5073026;28;20047;-67
2023/05/21 01:13:23;;;;;;;7.50;4.95;;;14.30;99.90;;;;;;5072758;28;20036;-68
2023/05/21 01:15:49;;;;;;;8.57;4.13;;;14.30;99.90;;;;;;5072704;28;20116;-68
2023/05/21 01:18:15;;;;;;;6.18;4.47;;;14.30;99.90;;;;;;5072617;28;20044;-68
2023/05/21 01:20:46;;;;;;;6.43;4.18;;;14.20;99.90;;;;;;5072615;28;20048;-67
2023/05/21 01:23:17;;;;;;;6.90;4.45;;;14.20;99.90;;;;;;5072753;28;20093;-68
2023/05/21 01:25:43;;;;;;;9.40;4.95;;;14.20;99.90;;;;;;5072395;28;20432;-67
2023/05/21 01:28:09;;;;;;;9.13;5.38;;;14.20;99.90;;;;;;5072436;28;20043;-68
2023/05/21 01:30:36;;;;;;;7.18;5.35;;;14.20;99.90;;;;;;5072468;28;20408;-68
2023/05/21 01:33:31;;;;;;;6.78;5.07;;;14.20;99.90;;;;;;5072395;28;20498;-68
2023/05/21 01:36:20;;;;;;;10.73;5.15;;;14.20;99.90;;;;;;5069927;28;20541;-68
2023/05/21 01:39:14;;;;;;;11.48;6.18;;;14.20;99.90;;;;;;5072131;28;20097;-68
2023/05/21 01:41:44;;;;;;;10.27;5.40;;;14.30;99.90;;;;;;5072250;28;20044;-68
2023/05/21 01:44:10;;;;;;;11.68;6.18;;;14.30;99.90;;;;;;5072347;28;20400;-68
2023/05/21 01:46:37;;;;;;;8.63;5.35;;;14.20;99.90;;;;;;5072105;28;20044;-68
2023/05/21 01:49:05;;;;;;;10.23;5.78;;;14.20;99.90;;;;;;5072133;28;20037;-68
2023/05/21 01:51:31;;;;;;;7.47;4.80;;;14.30;99.90;;;;;;5072133;28;20123;-68
2023/05/21 01:53:57;;;;;;;10.65;5.45;;;14.20;99.90;;;;;;5072080;28;20048;-68
2023/05/21 01:56:24;;;;;;;8.15;5.53;;;14.20;99.90;;;;;;5071782;28;20088;-68
2023/05/21 01:58:50;;;;;;;14.30;6.60;;;14.20;99.90;;;;;;5072061;28;20518;-68
2023/05/21 02:01:16;;;;;;;11.13;5.85;;;14.10;99.90;;;;;;5072036;28;20044;-68
2023/05/21 02:03:42;;;;;;;11.18;5.93;;;14.10;99.90;;;;;;5071862;28;20124;-68
2023/05/21 02:06:07;;;;;;;11.02;7.20;;;14.00;99.90;;;;;;5071625;28;20115;-68
2023/05/21 02:08:33;;;;;;;9.57;6.55;;;14.00;99.90;;;;;;5071579;28;20059;-69
2023/05/21 02:10:58;;;;;;;11.38;6.72;;;13.90;99.90;;;;;;5071775;28;20404;-69
2023/05/21 02:13:24;;;;;;;16.48;7.57;;;14.00;99.90;;;;;;5071286;28;20407;-68
2023/05/21 02:15:53;;;;;;;10.38;6.53;;;13.90;99.90;;;;;;5053518;28;20048;-68
2023/05/21 02:18:20;;;;;;;13.18;6.78;;;13.90;99.90;;;;;;5071511;28;20492;-68
2023/05/21 02:20:46;;;;;;;10.90;7.40;;;13.80;99.90;;;;;;5071669;28;20562;-68
2023/05/21 02:23:12;;;;;;;15.73;6.78;;;13.90;99.90;;;;;;5053640;28;20044;-68
2023/05/21 02:25:37;;;;;;;11.77;6.28;;;13.80;99.90;;;;;;5053472;28;20554;-68
2023/05/21 02:28:03;;;;;;;11.23;6.55;;;13.80;99.90;;;;;;5071682;28;20033;-68
2023/05/21 02:30:28;;;;;;;11.52;7.18;;;13.80;99.90;;;;;;5071768;28;20542;-68
2023/05/21 02:32:54;;;;;;;13.20;7.65;;;13.70;99.90;;;;;;5071532;28;20048;-68
2023/05/21 02:35:20;;;;;;;12.70;7.47;;;13.70;99.90;;;;;;5071490;28;20044;-68
2023/05/21 02:37:45;;;;;;;12.75;6.70;;;13.70;99.90;;;;;;5071249;28;20067;-68
2023/05/21 02:40:11;;;;;;;13.18;7.35;;;13.70;99.90;;;;;;5071430;28;20041;-68
2023/05/21 02:42:38;;;;;;;11.98;6.57;;;13.60;99.90;;;;;;5071583;28;20037;-68
2023/05/21 02:45:09;;;;;;;10.85;6.32;;;13.70;99.90;;;;;;5071463;28;20071;-68
2023/05/21 02:47:35;;;;;;;10.27;5.88;;;13.60;99.90;;;;;;5071218;28;20037;-68
2023/05/21 02:50:01;;;;;;;10.73;6.03;;;13.70;99.90;;;;;;5071415;28;20043;-68
2023/05/21 02:52:27;;;;;;;11.32;5.68;;;13.60;99.90;;;;;;5071227;28;20076;-68
2023/05/21 02:54:52;;;;;;;12.55;6.13;;;13.60;99.90;;;;;;5071418;28;20399;-68
2023/05/21 02:57:18;;;;;;;9.93;6.00;;;13.60;99.90;;;;;;5071299;28;20119;-68
2023/05/21 02:59:44;;;;;;;13.05;6.65;;;13.60;99.90;;;;;;5073624;28;20039;-68
2023/05/21 03:02:11;;;;;;;10.25;6.00;;;13.60;99.90;;;;;;5087953;28;20047;-68
2023/05/21 03:04:37;;;;;;;8.85;4.95;;;13.60;99.90;;;;;;5079111;28;20579;-68
2023/05/21 03:07:03;;;;;;;8.02;4.88;;;13.60;99.90;;;;;;5053023;28;20040;-68
2023/05/21 03:09:29;;;;;;;9.27;4.97;;;13.60;99.90;;;;;;5071263;28;20119;-68
2023/05/21 03:11:55;;;;;;;12.18;5.57;;;13.60;99.90;;;;;;5071206;28;20186;-68
2023/05/21 03:14:20;;;;;;;9.75;5.60;;;13.60;99.90;;;;;;5071301;28;20048;-68
2023/05/21 03:16:47;;;;;;;7.15;5.00;;;13.50;99.90;;;;;;5053154;28;20048;-68
2023/05/21 03:19:14;;;;;;;8.27;5.28;;;13.50;99.90;;;;;;5070968;28;20043;-68
2023/05/21 03:21:40;;;;;;;9.93;5.20;;;13.50;99.90;;;;;;5053633;28;20066;-68
2023/05/21 03:24:06;;;;;;;8.40;5.70;;;13.50;99.90;;;;;;5072570;28;20044;-68
2023/05/21 03:26:32;;;;;;;9.10;5.78;;;13.50;99.90;;;;;;5093742;28;20074;-69
2023/05/21 03:28:58;;;;;;;10.23;5.82;;;13.50;99.90;;;;;;5069761;28;20062;-68
2023/05/21 03:31:25;;;;;;;9.60;6.25;;;13.50;99.90;;;;;;5074814;28;20431;-69
2023/05/21 03:33:51;;;;;;;11.30;6.13;;;13.50;99.90;;;;;;5074751;28;20112;-69
2023/05/21 03:36:17;;;;;;;16.13;6.80;;;13.50;99.90;;;;;;5074399;28;20101;-68
2023/05/21 03:38:42;;;;;;;11.80;7.05;;;13.50;99.90;;;;;;5074838;28;20585;-69
2023/05/21 03:41:09;;;;;;;8.85;5.28;;;13.50;99.90;;;;;;5056831;28;20033;-69
2023/05/21 03:43:35;;;;;;;9.05;5.60;;;13.40;99.90;;;;;;5074576;28;20049;-68
2023/05/21 03:46:00;;;;;;;9.32;5.68;;;13.50;99.90;;;;;;5074396;28;20074;-68
2023/05/21 03:48:26;;;;;;;11.85;6.45;;;13.50;99.90;;;;;;5074216;28;20036;-68
2023/05/21 03:50:52;;;;;;;10.63;6.00;;;13.50;99.90;;;;;;5074354;28;20040;-69
2023/05/21 03:53:17;;;;;;;12.25;6.13;;;13.60;99.90;;;;;;5074432;28;20261;-68
2023/05/21 03:55:43;;;;;;;17.67;6.68;;;13.50;99.90;;;;;;5074373;28;20121;-69
2023/05/21 03:58:09;;;;;;;14.93;6.07;;;13.50;99.90;;;;;;5056148;28;20044;-68
2023/05/21 04:00:39;;;;;;;18.08;7.05;;;13.50;99.90;;;;;;5074377;28;20036;-69
2023/05/21 04:03:05;;;;;;;11.43;5.35;;;13.60;99.90;;;;;;5074034;28;20063;-68
2023/05/21 04:05:31;;;;;;;10.55;5.82;;;13.50;99.90;;;;;;5077039;28;20052;-68
2023/05/21 04:07:58;;;;;;;12.68;5.75;;;13.50;99.90;;;;;;5076218;28;20099;-68
2023/05/21 04:10:24;;;;;;;11.48;6.10;;;13.50;99.90;;;;;;5075566;28;20037;-68
2023/05/21 04:12:51;;;;;;;10.98;5.68;;;13.50;99.90;;;;;;5073927;28;20128;-68
2023/05/21 04:15:17;;;;;;;15.02;5.38;;;13.60;99.90;;;;;;5056015;28;20079;-69
2023/05/21 04:17:44;;;;;;;10.95;5.35;;;13.50;99.90;;;;;;5055788;28;20074;-68
2023/05/21 04:20:12;;;;;;;10.63;5.68;;;13.50;99.90;;;;;;5073890;28;20052;-68
2023/05/21 04:22:40;;;;;;;10.88;5.80;;;13.50;99.90;;;;;;5073952;28;20041;-68
2023/05/21 04:25:06;;;;;;;11.00;5.35;;;13.50;99.90;;;;;;5073905;28;20032;-68
2023/05/21 04:27:33;;;;;;;11.10;5.95;;;13.50;99.90;;;;;;5073746;28;20074;-68
2023/05/21 04:29:58;;;;;;;15.13;6.25;;;13.50;99.90;;;;;;5073827;28;20047;-68
2023/05/21 04:32:24;;;;;;;12.45;6.45;;;13.50;99.90;;;;;;5073606;28;20040;-68
2023/05/21 04:34:50;;;;;;;11.95;6.07;;;13.40;99.90;;;;;;5073856;28;20043;-67
2023/05/21 04:37:18;;;;;;;15.25;6.70;;;13.50;99.90;;;;;;5073078;28;20033;-68
2023/05/21 04:39:45;;;;;;;15.18;6.22;;;13.50;99.90;;;;;;5073694;28;20051;-68
2023/05/21 04:42:11;;;;;;;13.52;6.25;;;13.50;99.90;;;;;;5073392;28;20511;-68
2023/05/21 04:44:39;;;;;;;14.45;6.38;;;13.50;99.90;;;;;;5073430;28;20039;-67
2023/05/21 04:47:04;;;;;;;13.27;7.40;;;13.50;99.90;;;;;;5073099;28;20062;-68
2023/05/21 04:49:30;;;;;;;12.10;6.88;;;13.60;99.90;;;;;;5073195;28;20040;-67
2023/05/21 04:51:56;;;;;;;13.70;6.35;;;13.60;99.90;;;;;;5073492;28;20123;-68
2023/05/21 04:54:22;;;;;;;9.75;5.18;;;13.60;99.90;;;;;;5073211;28;20086;-68
2023/05/21 04:56:48;;;;;;;10.07;5.78;;;13.70;99.90;;;;;;5072937;28;20048;-68
2023/05/21 04:59:14;;;;;;;9.55;5.00;;;13.80;99.90;;;;;;5073097;28;20041;-68
2023/05/21 05:01:42;;;;;;;11.30;5.95;;;13.90;99.90;;;;;;5055307;28;20097;-68
2023/05/21 05:04:08;;;;;;;11.40;6.20;;;14.10;99.90;;;;;;5073261;28;20041;-68
2023/05/21 05:06:34;;;;;;;12.48;6.03;;;14.20;99.90;;;;;;5072837;28;20120;-68
2023/05/21 05:08:59;;;;;;;7.68;5.15;;;14.30;99.90;;;;;;5072908;28;20058;-67
2023/05/21 05:11:25;;;;;;;14.70;5.95;;;14.40;99.90;;;;;;5072998;28;20052;-67
2023/05/21 05:13:51;;;;;;;10.85;5.40;;;14.40;99.90;;;;;;5072842;28;20113;-67
2023/05/21 05:16:23;;;;;;;7.30;5.13;;;14.50;99.90;;;;;;5072544;28;20044;-67
2023/05/21 05:18:52;;;;;;;12.15;5.50;;;14.60;99.90;;;;;;5072836;28;20040;-68
2023/05/21 05:21:19;;;;;;;11.15;5.28;;;14.70;99.90;;;;;;5072705;28;20036;-68
2023/05/21 05:23:44;;;;;;;9.90;5.85;;;14.80;99.90;;;;;;5055028;28;20404;-68
2023/05/21 05:26:10;;;;;;;10.90;5.82;;;14.80;99.90;;;;;;5072448;28;20154;-68
2023/05/21 05:28:35;;;;;;;8.68;4.70;;;14.90;99.90;;;;;;5072431;28;20108;-68
2023/05/21 05:31:01;;;;;;;8.65;4.55;;;15.00;99.90;;;;;;5072728;28;20032;-67
2023/05/21 05:33:26;;;;;;;8.45;5.18;;;15.10;99.90;;;;;;5072638;28;20466;-67
2023/05/21 05:35:52;;;;;;;8.20;4.82;;;15.10;99.90;;;;;;5072374;28;20185;-68
2023/05/21 05:38:18;;;;;;;10.68;4.47;;;15.00;99.90;;;;;;5072325;28;20068;-68
2023/05/21 05:40:43;;;;;;;14.75;5.40;;;15.10;99.90;;;;;;5072259;28;20033;-67
2023/05/21 05:43:09;;;;;;;8.80;4.60;;;15.10;99.90;;;;;;5072146;28;20041;-67
2023/05/21 05:45:35;;;;;;;10.32;5.22;;;15.10;99.90;;;;;;5072287;28;20051;-67
2023/05/21 05:48:00;;;;;;;8.65;4.30;;;15.10;99.90;;;;;;5071989;28;20037;-68
2023/05/21 05:50:26;;;;;;;7.22;4.25;;;15.20;99.90;;;;;;5071730;28;20486;-68
2023/05/21 05:52:52;;;;;;;13.38;4.30;;;15.10;99.90;;;;;;5072145;28;20492;-68
2023/05/21 05:55:17;;;;;;;8.40;4.28;;;15.00;99.90;;;;;;5071946;28;20044;-68
2023/05/21 05:57:43;;;;;;;9.65;4.00;;;15.00;99.90;;;;;;5071720;28;20043;-67
2023/05/21 06:00:09;;;;;;;8.30;3.92;;;15.10;99.90;;;;;;5072271;28;20488;-67
2023/05/21 06:02:36;;;;;;;9.63;4.40;;;15.10;99.90;;;;;;5072081;28;20066;-68
2023/05/21 06:05:02;;;;;;;7.20;4.40;;;15.20;99.90;;;;;;5072096;28;20052;-67
2023/05/21 06:07:28;;;;;;;7.82;4.28;;;15.30;99.90;;;;;;5071538;28;20032;-67
2023/05/21 06:09:53;;;;;;;7.07;4.30;;;15.30;99.90;;;;;;5072001;28;20403;-68
2023/05/21 06:12:20;;;;;;;11.25;4.80;;;15.40;99.90;;;;;;5071886;28;20045;-68
2023/05/21 06:14:47;;;;;;;9.68;5.45;;;15.50;99.90;;;;;;5072057;28;20132;-68
2023/05/21 06:17:13;;;;;;;9.30;5.03;;;15.60;99.90;;;;;;5071803;28;20032;-67
2023/05/21 06:19:39;;;;;;;7.78;4.30;;;15.50;99.90;;;;;;5071845;28;20037;-68
2023/05/21 06:22:04;;;;;;;8.30;4.53;;;15.50;99.90;;;;;;5071795;28;20039;-68
2023/05/21 06:24:30;;;;;;;7.35;4.60;;;15.50;99.90;;;;;;5071684;28;20078;-67
2023/05/21 06:26:55;;;;;;;8.50;4.43;;;15.60;99.90;;;;;;5071356;28;20037;-68
2023/05/21 06:29:21;;;;;;;9.00;4.63;;;15.70;99.90;;;;;;5053764;28;20081;-68
2023/05/21 06:31:47;;;;;;;11.52;4.45;;;15.70;99.90;;;;;;5071716;28;20044;-68
2023/05/21 06:34:13;;;;;;;9.98;4.72;;;15.90;99.90;;;;;;5071713;28;20066;-68
2023/05/21 06:36:38;;;;;;;8.35;4.75;;;15.90;99.90;;;;;;5071487;28;20051;-68
2023/05/21 06:39:04;;;;;;;10.77;4.30;;;16.00;99.90;;;;;;5071443;28;20064;-68
2023/05/21 06:41:30;;;;;;;9.43;4.50;;;16.10;99.90;;;;;;5071468;28;20076;-69
2023/05/21 06:43:55;;;;;;;11.38;4.78;;;16.00;99.90;;;;;;5053499;28;20040;-68
2023/05/21 06:46:21;;;;;;;16.15;6.15;;;16.00;99.90;;;;;;5071327;28;20040;-68
2023/05/21 06:48:46;;;;;;;7.72;4.20;;;16.00;99.90;;;;;;5053404;28;20041;-69
2023/05/21 06:51:12;;;;;;;7.72;4.55;;;15.90;99.90;;;;;;5053789;28;20048;-68
2023/05/21 06:53:37;;;;;;;10.52;4.38;;;15.90;99.90;;;;;;5071410;28;20052;-68
2023/05/21 06:56:03;;;;;;;8.07;4.50;;;15.90;99.90;;;;;;5036826;28;20515;-69
2023/05/21 06:58:30;;;;;;;10.68;4.90;;;15.80;99.90;;;;;;5071425;28;20503;-68
2023/05/21 07:00:56;;;;;;;8.00;4.93;;;15.80;99.90;;;;;;5073737;28;20036;-69
2023/05/21 07:03:22;;;;;;;8.73;5.20;;;15.70;99.90;;;;;;5075344;28;20051;-68
2023/05/21 07:05:47;;;;;;;11.88;4.97;;;15.70;99.90;;;;;;5074967;28;20028;-68
2023/05/21 07:08:13;;;;;;;9.77;4.55;;;15.70;99.90;;;;;;5075212;28;20127;-68
2023/05/21 07:10:38;;;;;;;6.20;3.75;;;15.70;99.90;;;;;;5075096;28;20079;-68
2023/05/21 07:13:04;;;;;;;7.00;3.70;;;15.80;99.90;;;;;;5075093;28;20063;-68
2023/05/21 07:15:30;;;;;;;7.60;3.83;;;15.70;99.90;;;;;;5075069;28;20047;-69
2023/05/21 07:17:55;;;;;;;9.43;4.57;;;15.60;99.90;;;;;;5075032;28;20526;-69
2023/05/21 07:20:21;;;;;;;9.48;4.57;;;15.70;99.90;;;;;;5075021;28;20055;-69
2023/05/21 07:22:46;;;;;;;11.27;5.00;;;15.70;99.90;;;;;;5074854;28;20040;-69
2023/05/21 07:25:12;;;;;;;8.32;4.22;;;15.80;99.90;;;;;;5074740;28;20032;-70
2023/05/21 07:27:37;;;;;;;10.20;4.40;;;15.80;99.90;;;;;;5074539;28;20033;-70
2023/05/21 07:30:03;;;;;;;9.40;4.07;;;15.90;99.90;;;;;;5074990;28;20040;-69
2023/05/21 07:32:29;;;;;;;9.25;3.50;;;16.00;99.90;;;;;;5074670;28;20040;-68
2023/05/21 07:34:55;;;;;;;10.00;4.45;;;16.00;99.90;;;;;;5056931;28;20044;-68
2023/05/21 07:37:21;;;;;;;6.57;3.88;;;15.80;99.90;;;;;;5056456;28;20128;-68
2023/05/21 07:39:46;;;;;;;8.30;4.50;;;16.00;99.90;;;;;;5056511;28;20083;-69
2023/05/21 07:42:12;;;;;;;8.07;4.28;;;16.10;99.90;;;;;;5074464;28;20654;-69
2023/05/21 07:44:38;;;;;;;8.32;4.18;;;16.10;99.90;;;;;;5085222;28;20081;-68
2023/05/21 07:47:04;;;;;;;11.57;4.60;;;16.20;99.90;;;;;;5067486;28;20403;-68
2023/05/21 07:49:29;;;;;;;7.60;3.88;;;16.30;99.90;;;;;;5086506;28;20035;-68
2023/05/21 07:51:55;;;;;;;9.38;4.18;;;16.30;99.90;;;;;;5094553;28;20031;-68
2023/05/21 07:54:21;;;;;;;10.50;4.75;;;16.30;99.90;;;;;;5084554;28;20048;-68
2023/05/21 07:56:47;;;;;;;6.47;4.10;;;16.40;99.90;;;;;;5084426;28;20069;-69
2023/05/21 07:59:15;;;;;;;8.85;4.25;;;16.50;99.90;;;;;;5088406;28;20077;-69
2023/05/21 08:01:42;;;;;;;7.60;4.30;;;16.70;99.90;;;;;;5089421;28;20036;-69
2023/05/21 08:04:08;;;;;;;8.68;4.40;;;16.70;99.90;;;;;;5093902;28;20088;-69
2023/05/21 08:06:33;;;;;;;6.95;4.38;;;16.70;99.90;;;;;;5092820;28;20546;-69
2023/05/21 08:09:03;;;;;;;8.85;4.30;;;16.60;99.90;;;;;;5093777;28;20040;-70
2023/05/21 08:11:29;;;;;;;8.88;3.92;;;16.70;99.90;;;;;;5090774;28;20032;-70
2023/05/21 08:13:55;;;;;;;10.07;4.65;;;16.80;99.90;;;;;;5075579;28;20518;-70
2023/05/21 08:16:22;;;;;;;8.52;4.30;;;16.80;99.90;;;;;;5086122;28;20032;-70
2023/05/21 08:18:48;;;;;;;8.20;4.82;;;16.80;99.90;;;;;;5075554;28;20043;-71
2023/05/21 08:21:14;;;;;;;6.95;3.58;;;16.60;99.90;;;;;;5074690;28;20083;-70
2023/05/21 08:23:39;;;;;;;8.93;4.22;;;16.90;99.90;;;;;;5086187;28;20131;-70
2023/05/21 08:26:05;;;;;;;8.90;4.68;;;17.00;99.90;;;;;;5093704;28;20048;-70
2023/05/21 08:28:43;;;;;;;9.75;4.18;;;17.10;99.90;;;;;;5087579;28;20055;-69
2023/05/21 08:31:09;;;;;;;6.78;4.25;;;17.10;99.90;;;;;;5092703;28;20453;-70
2023/05/21 08:33:37;;;;;;;8.13;3.72;;;17.00;99.90;;;;;;5093350;28;20036;-70
2023/05/21 08:36:06;;;;;;;5.75;3.60;;;17.10;99.90;;;;;;5075161;28;20123;-70
2023/05/21 08:38:32;;;;;;;8.05;4.25;;;17.20;99.90;;;;;;5091864;28;20124;-70
2023/05/21 08:40:59;;;;;;;7.97;3.63;;;17.30;99.90;;;;;;5073709;28;20479;-70
2023/05/21 08:43:28;;;;;;;6.90;3.97;;;17.20;99.90;;;;;;5072917;28;20094;-71
2023/05/21 08:45:59;;;;;;;10.20;4.55;;;17.20;99.90;;;;;;5092493;28;20491;-70
2023/05/21 08:48:24;;;;;;;6.30;4.53;;;17.20;99.90;;;;;;5093018;28;20491;-71
2023/05/21 08:50:53;;;;;;;7.40;3.78;;;17.40;99.90;;;;;;5092631;28;20039;-70
2023/05/21 08:53:20;;;;;;;13.07;5.18;;;17.40;99.90;;;;;;5089577;28;20039;-71
2023/05/21 08:55:46;;;;;;;7.18;4.00;;;17.70;99.90;;;;;;5092695;28;20519;-71
2023/05/21 08:58:13;;;;;;;6.47;4.32;;;17.80;99.90;;;;;;5074225;28;20130;-70
2023/05/21 09:00:39;;;;;;;8.45;4.35;;;18.00;99.90;;;;;;5092939;28;20039;-71
2023/05/21 09:03:06;;;;;;;6.95;3.78;;;18.20;99.90;;;;;;5092138;28;20044;-70
2023/05/21 09:05:33;;;;;;;6.97;3.88;;;18.20;99.90;;;;;;5075509;28;20122;-70
2023/05/21 09:08:11;;;;;;;8.38;4.55;;;18.50;99.90;;;;;;5091932;28;20044;-69
2023/05/21 09:10:49;;;;;;;8.00;4.63;;;18.20;99.90;;;;;;5084843;28;20576;-69
2023/05/21 09:13:16;;;;;;;6.38;3.92;;;18.60;99.90;;;;;;5092759;28;20048;-70
2023/05/21 09:15:46;;;;;;;8.40;4.65;;;18.40;99.90;;;;;;5086394;28;20435;-68
2023/05/21 09:18:13;;;;;;;6.25;3.75;;;18.30;99.90;;;;;;5092495;28;20051;-70
2023/05/21 09:20:39;;;;;;;8.07;4.20;;;18.40;99.90;;;;;;5074451;28;20043;-71
2023/05/21 09:23:11;;;;;;;6.40;3.45;;;18.30;99.90;;;;;;5092512;28;20039;-71
2023/05/21 09:25:37;;;;;;;8.32;4.53;;;18.50;99.90;;;;;;5089023;28;20086;-71
2023/05/21 09:28:03;;;;;;;8.25;4.15;;;18.50;99.90;;;;;;5069812;28;20081;-70
2023/05/21 09:30:29;;;;;;;6.75;4.00;;;18.30;99.90;;;;;;5074369;28;20486;-71
2023/05/21 09:32:58;;;;;;;6.50;4.20;;;18.40;99.90;;;;;;5074278;28;20058;-69
2023/05/21 09:35:24;;;;;;;8.18;4.00;;;18.40;99.90;;;;;;5092079;28;20036;-70
2023/05/21 09:37:51;;;;;;;10.25;5.18;;;18.20;99.90;;;;;;5074193;28;20093;-70
2023/05/21 09:40:18;;;;;;;9.45;3.95;;;18.30;99.90;;;;;;5092475;28;20062;-70
2023/05/21 09:42:49;;;;;;;7.85;4.13;;;18.50;99.90;;;;;;5068943;28;20072;-69
2023/05/21 09:45:19;;;;;;;9.90;3.63;;;18.50;99.90;;;;;;5081034;28;20628;-70
2023/05/21 09:47:46;;;;;;;7.28;3.92;;;18.60;99.90;;;;;;5091578;28;20548;-70
2023/05/21 09:50:12;;;;;;;6.90;4.53;;;18.60;99.90;;;;;;5092366;28;20040;-69
2023/05/21 09:52:38;;;;;;;6.78;4.15;;;18.70;99.90;;;;;;5087607;28;20107;-70
2023/05/21 09:55:11;;;;;;;7.93;4.10;;;18.60;99.90;;;;;;5088618;28;20471;-70
2023/05/21 09:57:46;;;;;;;12.00;4.05;;;18.60;99.90;;;;;;5088711;28;20035;-70
2023/05/21 10:00:21;;;;;;;8.77;4.45;;;18.50;99.90;;;;;;5088781;28;20115;-69
2023/05/21 10:02:57;;;;;;;12.07;4.22;;;18.70;99.90;;;;;;5080221;28;20040;-70
2023/05/21 10:05:29;;;;;;;6.70;3.50;;;18.90;99.90;;;;;;5091969;28;20077;-70
2023/05/21 10:08:02;;;;;;;5.97;4.25;;;19.00;99.90;;;;;;5094337;28;20028;-69
2023/05/21 10:10:29;;;;;;;;;;;19.00;99.90;;;;;;5093562;28;20107;-70
2023/05/21 10:12:59;;;;;;;7.78;3.70;;;19.10;99.90;;;;;;5090557;28;19916;-71
2023/05/21 10:15:28;;;;;;;7.13;3.95;;;19.00;99.90;;;;;;5090193;28;20522;-69
2023/05/21 10:17:55;;;;;;;5.85;3.80;;;19.20;99.90;;;;;;5087023;28;20040;-71
2023/05/21 10:20:21;;;;;;;7.85;4.05;;;19.20;99.90;;;;;;5089752;28;20407;-71
2023/05/21 10:22:49;;;;;;;10.15;4.55;;;19.20;99.90;;;;;;5091701;28;20119;-70
2023/05/21 10:25:15;;;;;;;5.75;3.78;;;19.10;99.90;;;;;;5090739;28;20111;-69
2023/05/21 10:27:41;;;;;;;10.30;5.13;;;19.20;99.90;;;;;;5091615;28;20043;-70
2023/05/21 10:30:07;;;;;;;6.25;3.80;;;19.40;99.90;;;;;;5086306;28;20036;-71
2023/05/21 10:32:33;;;;;;;8.82;4.00;;;19.50;99.90;;;;;;5085905;28;20028;-71
2023/05/21 10:35:02;;;;;;;8.93;4.72;;;19.40;99.90;;;;;;5089636;28;20676;-71
2023/05/21 10:37:28;;;;;;;12.50;4.90;;;19.40;99.90;;;;;;5090781;28;20044;-70
2023/05/21 10:39:55;;;;;;;7.13;4.28;;;19.60;99.90;;;;;;5090937;28;20450;-71
2023/05/21 10:42:48;;;;;;;9.43;4.55;;;19.60;99.90;;;;;;5090343;28;20066;-70
2023/05/21 10:45:58;;;;;;;6.15;3.88;;;19.60;99.90;;;;;;5087360;28;20040;-70
2023/05/21 10:48:49;;;;;;;9.25;4.47;;;19.60;99.90;;;;;;5064382;28;20131;-70
2023/05/21 10:51:27;;;;;;;7.90;5.30;;;19.60;99.90;;;;;;5091046;28;20407;-71
2023/05/21 10:54:20;;;;;;;11.05;5.93;;;19.60;99.90;;;;;;5090405;28;20036;-70
2023/05/21 10:57:02;;;;;;;8.20;5.18;;;19.60;99.90;;;;;;5062688;28;20045;-73
2023/05/21 10:59:41;;;;;;;7.20;4.93;;;19.70;99.90;;;;;;5085866;28;20048;-69
2023/05/21 11:02:08;;;;;;;9.80;4.57;;;19.70;99.90;;;;;;5091111;28;20063;-69
2023/05/21 11:04:38;;;;;;;9.63;6.38;;;19.40;99.90;;;;;;5091067;28;20519;-70
2023/05/21 11:07:04;;;;;;;6.57;4.45;;;19.70;99.90;;;;;;5091151;28;20584;-69
2023/05/21 11:09:30;;;;;;;7.32;4.63;;;19.80;99.90;;;;;;5091039;28;20036;-69
2023/05/21 11:11:57;;;;;;;9.23;5.05;;;19.70;99.90;;;;;;5091548;28;20036;-69
2023/05/21 11:14:27;;;;;;;10.82;6.13;;;19.90;99.90;;;;;;5073147;28;20044;-70
2023/05/21 11:16:53;;;;;;;9.00;6.95;;;19.70;99.90;;;;;;5083228;28;20044;-70
2023/05/21 11:19:19;;;;;;;11.88;6.07;;;19.90;99.90;;;;;;5063928;28;20139;-70
2023/05/21 11:21:51;;;;;;;10.38;6.65;;;19.90;99.90;;;;;;5053162;28;20063;-70
2023/05/21 11:24:20;;;;;;;11.25;7.20;;;19.90;99.90;;;;;;5071120;28;20068;-71
2023/05/21 11:26:51;;;;;;;10.15;5.15;;;19.70;99.90;;;;;;5070828;28;20516;-70
2023/05/21 11:29:18;;;;;;;8.10;5.75;;;19.80;99.90;;;;;;5053200;28;20067;-70
2023/05/21 11:31:57;;;;;;;12.05;5.88;;;19.70;99.90;;;;;;5071094;28;20495;-70
2023/05/21 11:34:27;;;;;;;10.60;6.53;;;19.60;99.90;;;;;;5079400;28;20604;-70
2023/05/21 11:37:30;;;;;;;11.70;6.70;;;19.60;99.90;;;;;;5067005;28;20488;-70
2023/05/21 11:40:16;;;;;;;8.98;5.35;;;19.90;99.90;;;;;;5071138;28;20036;-69
2023/05/21 11:42:42;;;;;;;13.50;6.57;;;19.60;99.90;;;;;;5071066;28;20051;-70
2023/05/21 11:45:09;;;;;;;10.32;6.07;;;19.70;99.90;;;;;;5070627;28;20043;-70
2023/05/21 11:47:34;;;;;;;8.48;5.30;;;19.40;99.90;;;;;;5053134;28;20043;-70
2023/05/21 11:50:02;;;;;;;9.45;5.78;;;19.40;99.90;;;;;;5074013;28;20037;-70
2023/05/21 11:52:29;;;;;;;10.90;5.80;;;19.40;99.90;;;;;;5074497;28;20033;-70
2023/05/21 11:54:56;;;;;;;9.05;6.10;;;19.40;99.90;;;;;;5074589;28;20063;-71
2023/05/21 11:57:25;;;;;;;10.80;6.75;;;19.40;99.90;;;;;;5074118;28;20062;-70
2023/05/21 11:59:51;;;;;;;11.85;6.20;;;19.50;99.90;;;;;;5074253;28;20037;-70
2023/05/21 12:02:21;;;;;;;11.73;6.63;;;19.30;99.90;;;;;;5074367;28;20058;-70
2023/05/21 12:04:48;;;;;;;10.20;6.82;;;19.40;99.90;;;;;;5074030;28;20074;-71
2023/05/21 12:07:16;;;;;;;12.60;7.55;;;19.50;99.90;;;;;;5073723;28;20037;-70
2023/05/21 12:09:43;;;;;;;12.00;6.65;;;19.50;99.90;;;;;;5074149;28;20109;-71
2023/05/21 12:12:12;;;;;;;8.55;6.32;;;19.50;99.90;;;;;;5074130;28;20112;-69
2023/05/21 12:14:37;;;;;;;10.32;6.97;;;19.40;99.90;;;;;;5093876;28;20044;-69
2023/05/21 12:17:05;;;;;;;11.50;7.47;;;19.50;99.90;;;;;;5093135;28;20407;-70
2023/05/21 12:19:33;;;;;;;10.60;7.43;;;19.50;99.90;;;;;;5094070;28;20061;-69
2023/05/21 12:22:00;;;;;;;10.02;6.95;;;19.50;99.90;;;;;;5094128;28;20526;-70
2023/05/21 12:24:26;;;;;;;12.00;7.50;;;19.50;99.90;;;;;;5094183;28;20045;-70
2023/05/21 12:26:53;;;;;;;12.02;7.25;;;19.60;99.90;;;;;;5093068;28;20066;-70
2023/05/21 12:29:20;;;;;;;14.93;7.85;;;19.80;99.90;;;;;;5092932;28;20046;-68
2023/05/21 12:31:49;;;;;;;14.43;8.18;;;19.70;99.90;;;;;;5093166;28;20089;-72
2023/05/21 12:34:17;;;;;;;14.85;9.05;;;19.70;99.90;;;;;;5075454;28;20078;-71
2023/05/21 12:36:50;;;;;;;12.48;8.77;;;19.70;99.90;;;;;;5072608;28;20559;-71
2023/05/21 12:39:16;;;;;;;;;;;19.70;99.90;;;;;;5093605;28;20047;-71
2023/05/21 12:41:42;;;;;;;17.23;9.48;;;19.60;99.90;;;;;;5093396;28;19919;-72
2023/05/21 12:44:10;;;;;;;15.30;7.95;;;19.70;99.90;;;;;;5093625;28;20074;-72
2023/05/21 12:46:35;;;;;;;17.23;8.85;;;19.50;99.90;;;;;;5093461;28;20090;-72